Time;durP1;ratioP1;P1;durP2;ratioP2;P2;SDS_P1;SDS_P2;PMS_P1;PMS_P2;Temp;Humidity;BMP_temperature;BMP_pressure;BME280_temperature;BME280_humidity;BME280_pressure;Samples;Min_cycle;Max_cycle;Signal;HPM_P1;HPM_P2
2023/12/17 00:00:15;;;;;;;13.20;7.50;;;;;;;1.18;61.27;96923.59;5105735;28;20031;-80
2023/12/17 00:02:40;;;;;;;13.63;8.25;;;;;;;1.12;61.38;96919.50;5106642;28;20063;-80
2023/12/17 00:05:06;;;;;;;13.15;7.70;;;;;;;1.12;61.24;96923.00;5106830;28;20111;-79
2023/12/17 00:07:32;;;;;;;15.10;7.47;;;;;;;1.09;61.29;96918.25;5107012;28;20024;-79
2023/12/17 00:09:57;;;;;;;15.23;8.32;;;;;;;1.05;61.30;96926.22;5106464;27;20476;-79
2023/12/17 00:12:22;;;;;;;14.77;7.55;;;;;;;1.03;61.35;96927.66;5106954;28;20161;-80
2023/12/17 00:14:48;;;;;;;11.93;7.43;;;;;;;0.99;61.43;96929.44;5106150;28;20040;-79
2023/12/17 00:17:13;;;;;;;13.98;7.80;;;;;;;0.95;61.47;96942.03;5106804;28;20024;-80
2023/12/17 00:19:40;;;;;;;12.88;7.55;;;;;;;0.96;61.39;96938.22;5106631;28;20356;-80
2023/12/17 00:22:05;;;;;;;11.65;7.53;;;;;;;0.93;61.60;96947.00;5106656;28;20509;-80
2023/12/17 00:24:30;;;;;;;11.07;6.50;;;;;;;0.90;61.56;96950.34;5106494;28;20031;-80
2023/12/17 00:26:57;;;;;;;10.52;6.68;;;;;;;0.94;61.39;96949.38;5106769;28;20450;-80
2023/12/17 00:29:23;;;;;;;12.82;6.25;;;;;;;0.87;61.58;96949.09;5106834;28;20508;-79
2023/12/17 00:31:48;;;;;;;13.80;7.82;;;;;;;0.83;62.00;96958.97;5104636;28;20492;-80
2023/12/17 00:34:14;;;;;;;11.85;6.85;;;;;;;0.77;62.32;96961.06;5106598;27;20052;-79
2023/12/17 00:36:39;;;;;;;11.88;7.50;;;;;;;0.75;62.87;96959.81;5105969;28;20103;-80
2023/12/17 00:39:04;;;;;;;13.88;8.27;;;;;;;0.67;63.15;96958.72;5106321;28;20031;-79
2023/12/17 00:41:31;;;;;;;13.52;7.70;;;;;;;0.68;63.10;96957.59;5105955;28;20116;-79
2023/12/17 00:43:57;;;;;;;12.43;8.15;;;;;;;0.53;63.59;96963.53;5104703;28;20027;-80
2023/12/17 00:46:22;;;;;;;12.00;8.07;;;;;;;0.39;64.07;96971.03;5106370;28;20034;-79
2023/12/17 00:48:48;;;;;;;13.57;8.13;;;;;;;0.41;63.96;96966.91;5106046;28;20027;-79
2023/12/17 00:51:13;;;;;;;10.65;6.95;;;;;;;0.36;63.94;96972.50;5106631;28;20113;-78
2023/12/17 00:53:39;;;;;;;12.85;7.60;;;;;;;0.25;64.20;96977.44;5105888;28;20478;-80
2023/12/17 00:56:04;;;;;;;12.38;7.85;;;;;;;0.23;64.30;96971.56;5105999;28;20028;-80
2023/12/17 00:58:30;;;;;;;13.20;7.40;;;;;;;0.23;63.92;96976.16;5105455;28;20031;-80
2023/12/17 01:00:55;;;;;;;11.95;6.55;;;;;;;0.09;63.94;96965.53;5105861;27;20320;-79
2023/12/17 01:03:21;;;;;;;12.95;7.28;;;;;;;0.05;64.07;96966.47;5106035;28;20031;-80
2023/12/17 01:05:46;;;;;;;10.25;6.72;;;;;;;0.04;63.99;96959.47;5106071;28;20129;-80
2023/12/17 01:08:11;;;;;;;11.07;6.22;;;;;;;0.07;63.81;96965.06;5105810;28;20038;-79
2023/12/17 01:10:37;;;;;;;11.52;6.68;;;;;;;0.10;63.49;96972.50;5106176;28;20024;-79
2023/12/17 01:13:02;;;;;;;12.10;7.75;;;;;;;-0.03;63.64;96960.75;5105942;28;20047;-81
2023/12/17 01:15:28;;;;;;;9.40;6.35;;;;;;;-0.08;63.62;96955.50;5105845;28;20066;-80
2023/12/17 01:17:53;;;;;;;10.65;6.20;;;;;;;-0.12;63.80;96965.38;5106523;28;20030;-81
2023/12/17 01:20:18;;;;;;;10.98;5.72;;;;;;;-0.17;63.97;96967.44;5105793;28;20116;-79
2023/12/17 01:22:44;;;;;;;11.90;6.40;;;;;;;-0.24;63.86;96964.41;5106401;28;20085;-81
2023/12/17 01:25:09;;;;;;;12.98;6.72;;;;;;;-0.30;64.28;96977.28;5106188;28;20033;-80
2023/12/17 01:27:35;;;;;;;10.23;6.00;;;;;;;-0.27;64.23;96979.38;5105813;28;20177;-81
2023/12/17 01:30:00;;;;;;;8.75;5.90;;;;;;;-0.31;64.34;96981.13;5106005;28;20109;-81
2023/12/17 01:32:25;;;;;;;11.43;6.10;;;;;;;-0.36;63.99;96983.97;5105734;28;20063;-81
2023/12/17 01:34:51;;;;;;;8.55;5.38;;;;;;;-0.31;64.22;96978.41;5105850;28;20027;-81
2023/12/17 01:37:16;;;;;;;10.55;6.15;;;;;;;-0.30;64.12;96978.09;5108152;28;20477;-80
2023/12/17 01:39:42;;;;;;;8.95;5.95;;;;;;;-0.24;64.01;96986.03;5109952;28;20020;-81
2023/12/17 01:42:07;;;;;;;10.23;5.47;;;;;;;-0.25;63.83;96993.34;5109627;28;20340;-79
2023/12/17 01:44:33;;;;;;;9.45;5.18;;;;;;;-0.27;63.85;96982.88;5109892;28;20023;-80
2023/12/17 01:46:59;;;;;;;10.60;5.55;;;;;;;-0.23;63.62;96998.44;5109914;28;20039;-79
2023/12/17 01:49:24;;;;;;;9.95;5.97;;;;;;;-0.20;63.61;96997.81;5108258;28;20066;-79
2023/12/17 01:51:50;;;;;;;10.82;5.63;;;;;;;-0.29;63.63;96995.91;5109708;28;20115;-80
2023/12/17 01:54:15;;;;;;;9.00;5.40;;;;;;;-0.37;63.82;96995.88;5109140;27;20031;-79
2023/12/17 01:56:41;;;;;;;11.13;5.90;;;;;;;-0.37;63.75;96996.69;5109530;28;20034;-80
2023/12/17 01:59:07;;;;;;;9.43;5.47;;;;;;;-0.39;63.50;96985.41;5107381;28;20035;-80
2023/12/17 02:01:32;;;;;;;8.35;5.63;;;;;;;-0.32;63.54;96993.03;5109281;28;20509;-80
2023/12/17 02:03:58;;;;;;;9.13;5.40;;;;;;;-0.38;63.33;96994.31;5109080;27;20023;-80
2023/12/17 02:06:23;;;;;;;9.30;5.03;;;;;;;-0.37;63.59;96990.47;5108988;28;20128;-80
2023/12/17 02:08:49;;;;;;;9.52;5.55;;;;;;;-0.41;63.55;96984.13;5109375;28;20327;-80
2023/12/17 02:11:14;;;;;;;9.35;5.15;;;;;;;-0.46;63.74;96978.84;5108811;28;20024;-80
2023/12/17 02:13:39;;;;;;;8.48;4.70;;;;;;;-0.59;63.46;96951.66;5108976;28;20039;-80
2023/12/17 02:16:05;;;;;;;8.10;5.15;;;;;;;-0.54;63.68;96975.03;5106977;28;20027;-80
2023/12/17 02:18:30;;;;;;;8.48;4.47;;;;;;;-0.66;63.64;96969.47;5109119;28;20482;-80
2023/12/17 02:20:57;;;;;;;9.63;5.10;;;;;;;-0.63;64.01;96982.31;5108675;28;20027;-80
2023/12/17 02:23:22;;;;;;;8.63;5.78;;;;;;;-0.65;64.12;96976.44;5107386;28;20119;-80
2023/12/17 02:25:47;;;;;;;8.25;4.72;;;;;;;-0.72;64.35;96978.81;5107695;28;20107;-80
2023/12/17 02:28:13;;;;;;;7.57;4.57;;;;;;;-0.76;64.57;96967.06;5107101;28;20080;-80
2023/12/17 02:30:38;;;;;;;8.40;5.28;;;;;;;-0.78;64.56;96975.47;5109262;28;20405;-80
2023/12/17 02:33:04;;;;;;;8.00;4.53;;;;;;;-0.76;64.59;96981.34;5108232;28;20034;-80
2023/12/17 02:35:29;;;;;;;8.82;4.82;;;;;;;-0.78;64.44;96971.97;5109057;28;20035;-80
2023/12/17 02:37:54;;;;;;;7.75;5.18;;;;;;;-0.78;64.67;96974.69;5108055;28;20030;-80
2023/12/17 02:40:20;;;;;;;6.97;4.13;;;;;;;-0.74;64.40;96984.56;5108788;28;20103;-80
2023/12/17 02:42:45;;;;;;;8.00;4.68;;;;;;;-0.73;64.53;96977.25;5108611;28;20027;-80
2023/12/17 02:45:13;;;;;;;8.70;5.38;;;;;;;-0.70;64.26;96980.09;5108117;28;20023;-80
2023/12/17 02:47:38;;;;;;;6.93;3.90;;;;;;;-0.64;64.21;96981.53;5108285;28;20026;-80
2023/12/17 02:50:04;;;;;;;9.73;4.13;;;;;;;-0.66;64.23;96983.75;5108061;28;20027;-80
2023/12/17 02:52:30;;;;;;;9.10;4.85;;;;;;;-0.66;64.48;96983.75;5108730;28;20020;-79
2023/12/17 02:54:55;;;;;;;8.27;4.63;;;;;;;-0.63;64.53;96982.31;5108210;28;20016;-79
2023/12/17 02:57:25;;;;;;;8.15;4.95;;;;;;;-0.60;64.53;96979.78;5108393;28;20812;-79
2023/12/17 02:59:53;;;;;;;7.25;4.70;;;;;;;-0.71;64.76;96978.50;5108162;28;20043;-79
2023/12/17 03:02:19;;;;;;;6.72;3.78;;;;;;;-0.70;64.79;96982.00;5107934;28;20028;-79
2023/12/17 03:04:44;;;;;;;8.27;4.80;;;;;;;-0.67;65.03;96975.97;5107345;28;20019;-80
2023/12/17 03:07:10;;;;;;;8.48;4.50;;;;;;;-0.59;64.84;96983.28;5107642;28;20035;-80
2023/12/17 03:09:35;;;;;;;6.95;4.82;;;;;;;-0.65;64.87;96976.44;5108163;28;20438;-79
2023/12/17 03:12:02;;;;;;;7.47;4.50;;;;;;;-0.60;64.93;96981.72;5107701;28;20497;-80
2023/12/17 03:14:27;;;;;;;5.85;3.75;;;;;;;-0.58;64.83;96987.59;5107967;28;20175;-79
2023/12/17 03:16:53;;;;;;;6.85;4.20;;;;;;;-0.66;65.01;96983.75;5107632;28;20106;-79
2023/12/17 03:19:18;;;;;;;7.90;4.22;;;;;;;-0.71;65.37;96980.41;5107913;28;20032;-79
2023/12/17 03:21:43;;;;;;;6.07;4.07;;;;;;;-0.66;65.27;96983.75;5108045;28;20454;-80
2023/12/17 03:24:09;;;;;;;9.70;5.05;;;;;;;-0.60;65.17;96979.00;5107400;28;20034;-79
2023/12/17 03:26:34;;;;;;;8.27;4.97;;;;;;;-0.62;65.41;96982.03;5107948;28;20020;-79
2023/12/17 03:29:00;;;;;;;7.10;4.72;;;;;;;-0.70;65.37;96988.19;5107106;28;20546;-79
2023/12/17 03:31:25;;;;;;;9.45;4.93;;;;;;;-0.78;65.57;96974.69;5107701;28;20039;-79
2023/12/17 03:33:50;;;;;;;6.97;4.03;;;;;;;-0.78;65.66;96991.69;5107100;28;20031;-79
2023/12/17 03:36:16;;;;;;;7.05;4.57;;;;;;;-0.80;65.71;96985.81;5107554;28;20038;-80
2023/12/17 03:38:45;;;;;;;6.18;4.40;;;;;;;-0.78;65.67;96988.19;5107701;28;20477;-80
2023/12/17 03:41:24;;;;;;;7.18;4.40;;;;;;;-0.72;65.34;97000.44;5107222;28;20088;-80
2023/12/17 03:43:51;;;;;;;7.88;4.90;;;;;;;-0.78;65.31;96994.38;5107497;28;20028;-80
2023/12/17 03:46:17;;;;;;;8.75;4.40;;;;;;;-0.75;65.55;96991.03;5105696;28;20080;-80
2023/12/17 03:48:42;;;;;;;5.03;3.97;;;;;;;-0.76;65.64;96999.47;5107514;28;20099;-81
2023/12/17 03:51:08;;;;;;;7.05;4.95;;;;;;;-0.83;65.92;96995.31;5106529;28;20106;-80
2023/12/17 03:53:33;;;;;;;6.03;4.35;;;;;;;-0.79;65.92;96997.41;5106306;28;20028;-80
2023/12/17 03:55:59;;;;;;;5.97;4.22;;;;;;;-0.76;65.75;97007.56;5107306;28;20016;-80
2023/12/17 03:58:24;;;;;;;7.88;4.45;;;;;;;-0.75;65.66;97001.84;5106560;28;20103;-79
2023/12/17 04:00:49;;;;;;;7.70;4.78;;;;;;;-0.75;65.66;97009.94;5106749;28;20311;-79
2023/12/17 04:03:15;;;;;;;7.05;4.65;;;;;;;-0.75;65.82;97014.56;5106675;28;20023;-79
2023/12/17 04:05:40;;;;;;;6.95;4.72;;;;;;;-0.65;66.05;97000.75;5107458;28;20043;-80
2023/12/17 04:08:07;;;;;;;7.70;4.53;;;;;;;-0.66;66.06;97004.59;5105897;28;20477;-80
2023/12/17 04:10:33;;;;;;;7.35;4.80;;;;;;;-0.67;66.26;97005.69;5107460;28;20032;-80
2023/12/17 04:12:59;;;;;;;7.55;5.00;;;;;;;-0.67;66.33;97009.19;5106500;28;20122;-81
2023/12/17 04:15:24;;;;;;;7.03;4.50;;;;;;;-0.66;66.49;97007.28;5107228;28;20035;-81
2023/12/17 04:17:49;;;;;;;5.22;4.03;;;;;;;-0.68;66.47;97009.50;5106774;28;20453;-81
2023/12/17 04:20:15;;;;;;;8.20;4.93;;;;;;;-0.67;66.57;97003.00;5106284;28;20041;-80
2023/12/17 04:22:41;;;;;;;8.35;5.18;;;;;;;-0.66;66.60;97018.09;5106881;28;20038;-80
2023/12/17 04:25:08;;;;;;;8.20;4.60;;;;;;;-0.76;66.91;97010.25;5106238;28;20023;-80
2023/12/17 04:27:34;;;;;;;7.28;4.72;;;;;;;-0.71;66.78;97021.72;5105701;28;20023;-80
2023/12/17 04:29:59;;;;;;;9.75;5.13;;;;;;;-0.67;66.60;97024.59;5106267;28;20217;-81
2023/12/17 04:32:25;;;;;;;8.40;5.32;;;;;;;-0.76;66.92;97013.75;5105163;28;20466;-81
2023/12/17 04:34:55;;;;;;;8.30;5.40;;;;;;;-0.75;67.00;97014.56;5106608;28;20038;-81
2023/12/17 04:37:23;;;;;;;8.85;5.30;;;;;;;-0.78;66.97;97013.28;5106174;28;20053;-81
2023/12/17 04:39:49;;;;;;;6.50;4.75;;;;;;;-0.78;66.88;97040.28;5107063;28;20552;-81
2023/12/17 04:42:16;;;;;;;8.40;5.13;;;;;;;-0.69;66.81;97034.91;5106136;28;20510;-81
2023/12/17 04:44:41;;;;;;;8.63;4.97;;;;;;;-0.83;66.89;97013.44;5106749;28;20027;-81
2023/12/17 04:47:06;;;;;;;9.98;6.03;;;;;;;-0.78;67.07;97029.50;5106317;28;20381;-81
2023/12/17 04:49:32;;;;;;;9.40;5.13;;;;;;;-0.77;66.94;97031.06;5106464;28;20379;-81
2023/12/17 04:51:57;;;;;;;9.48;5.38;;;;;;;-0.72;66.89;97028.25;5106075;28;20035;-80
2023/12/17 04:54:23;;;;;;;9.65;5.28;;;;;;;-0.67;66.78;97033.50;5105962;28;20055;-81
2023/12/17 04:56:49;;;;;;;8.60;5.45;;;;;;;-0.68;66.76;97034.63;5106425;28;20132;-80
2023/12/17 04:59:14;;;;;;;7.07;4.55;;;;;;;-0.66;66.60;97032.38;5105942;28;20517;-79
2023/12/17 05:01:40;;;;;;;9.50;5.55;;;;;;;-0.61;66.51;97034.16;5105117;28;20032;-81
2023/12/17 05:04:05;;;;;;;7.55;5.10;;;;;;;-0.58;66.26;97030.81;5105524;28;20115;-80
2023/12/17 05:06:30;;;;;;;8.93;5.28;;;;;;;-0.65;66.32;97035.88;5106508;28;20028;-80
2023/12/17 05:08:56;;;;;;;7.47;4.95;;;;;;;-0.64;66.10;97043.66;5105679;28;20545;-81
2023/12/17 05:11:21;;;;;;;9.75;5.68;;;;;;;-0.61;66.16;97047.66;5110510;28;20020;-81
2023/12/17 05:13:46;;;;;;;9.73;6.25;;;;;;;-0.67;66.21;97060.50;5112626;27;20130;-81
2023/12/17 05:16:12;;;;;;;9.68;5.50;;;;;;;-0.67;66.25;97052.41;5112414;27;20028;-81
2023/12/17 05:18:37;;;;;;;8.88;4.90;;;;;;;-0.67;66.08;97062.41;5112783;27;20114;-80
2023/12/17 05:21:03;;;;;;;8.98;5.80;;;;;;;-0.66;66.06;97059.41;5112582;27;20116;-81
2023/12/17 05:23:29;;;;;;;8.85;4.88;;;;;;;-0.72;66.21;97060.66;5113151;27;20024;-81
2023/12/17 05:25:54;;;;;;;9.93;5.65;;;;;;;-0.72;66.26;97071.47;5112152;27;20024;-81
2023/12/17 05:28:19;;;;;;;9.07;5.95;;;;;;;-0.75;66.41;97071.28;5112763;27;20102;-81
2023/12/17 05:30:46;;;;;;;11.05;5.53;;;;;;;-0.74;66.40;97073.69;5112632;27;20509;-80
2023/12/17 05:33:12;;;;;;;11.50;6.13;;;;;;;-0.80;66.48;97072.22;5112269;27;20051;-81
2023/12/17 05:35:37;;;;;;;9.60;5.65;;;;;;;-0.77;66.45;97087.78;5112881;27;20106;-81
2023/12/17 05:38:03;;;;;;;10.43;5.97;;;;;;;-0.78;66.27;97088.91;5112344;27;20035;-81
2023/12/17 05:40:28;;;;;;;8.95;5.32;;;;;;;-0.74;66.10;97078.28;5113629;27;20028;-80
2023/12/17 05:42:54;;;;;;;9.25;5.57;;;;;;;-0.78;66.13;97080.81;5112540;27;20028;-80
2023/12/17 05:45:19;;;;;;;11.35;5.68;;;;;;;-0.73;66.09;97090.69;5112493;27;20497;-80
2023/12/17 05:47:46;;;;;;;10.10;5.72;;;;;;;-0.73;66.08;97087.97;5112198;27;20512;-80
2023/12/17 05:50:11;;;;;;;9.60;5.22;;;;;;;-0.71;65.74;97080.34;5112113;27;20034;-79
2023/12/17 05:52:36;;;;;;;8.75;5.15;;;;;;;-0.73;65.72;97090.69;5112698;27;20418;-80
2023/12/17 05:55:03;;;;;;;9.15;5.45;;;;;;;-0.80;65.81;97080.34;5112308;27;20099;-79
2023/12/17 05:57:28;;;;;;;7.63;4.80;;;;;;;-0.85;65.71;97077.75;5112724;27;20028;-80
2023/12/17 05:59:53;;;;;;;7.65;5.05;;;;;;;-0.78;65.94;97088.13;5112240;27;20031;-80
2023/12/17 06:02:19;;;;;;;7.93;5.70;;;;;;;-0.81;65.63;97082.22;5112439;27;20039;-80
2023/12/17 06:04:44;;;;;;;8.88;5.50;;;;;;;-0.78;65.49;97085.41;5111979;27;20424;-80
2023/12/17 06:07:09;;;;;;;10.60;5.63;;;;;;;-0.87;65.61;97080.75;5112444;27;20035;-81
2023/12/17 06:09:35;;;;;;;8.80;5.25;;;;;;;-0.97;65.79;97081.03;5112193;27;20032;-80
2023/12/17 06:12:00;;;;;;;9.18;5.22;;;;;;;-1.04;65.71;97088.78;5112238;27;20185;-80
2023/12/17 06:14:27;;;;;;;8.13;5.72;;;;;;;-1.03;65.72;97082.28;5112320;27;20101;-80
2023/12/17 06:16:53;;;;;;;7.90;4.93;;;;;;;-1.03;65.65;97079.59;5112109;27;20020;-80
2023/12/17 06:19:18;;;;;;;7.18;4.95;;;;;;;-1.11;65.73;97081.13;5112175;27;20027;-80
2023/12/17 06:21:44;;;;;;;7.63;4.78;;;;;;;-1.01;65.68;97079.28;5110696;27;20127;-79
2023/12/17 06:24:09;;;;;;;8.13;5.20;;;;;;;-0.90;65.14;97086.00;5108883;28;20034;-80
2023/12/17 06:26:38;;;;;;;7.82;5.38;;;;;;;-0.92;65.52;97099.00;5108674;28;20028;-79
2023/12/17 06:29:03;;;;;;;8.07;4.40;;;;;;;-0.90;65.44;97094.91;5107488;28;20108;-80
2023/12/17 06:31:30;;;;;;;7.18;5.00;;;;;;;-0.89;65.25;97093.00;5109196;28;20110;-80
2023/12/17 06:33:55;;;;;;;7.50;4.85;;;;;;;-0.89;65.35;97104.59;5108895;28;20024;-80
2023/12/17 06:36:21;;;;;;;9.45;5.88;;;;;;;-0.88;65.36;97099.97;5108258;28;20031;-79
2023/12/17 06:38:46;;;;;;;8.05;5.28;;;;;;;-0.84;65.25;97101.75;5090216;28;20065;-79
2023/12/17 06:41:12;;;;;;;9.23;5.03;;;;;;;-0.79;65.14;97100.81;5108615;28;20057;-80
2023/12/17 06:43:39;;;;;;;8.27;4.80;;;;;;;-0.70;65.02;97101.63;5108274;28;20051;-80
2023/12/17 06:46:06;;;;;;;8.73;5.78;;;;;;;-0.72;65.11;97111.19;5108945;28;20020;-79
2023/12/17 06:48:33;;;;;;;9.43;6.03;;;;;;;-0.64;65.09;97108.50;5108456;28;20034;-80
2023/12/17 06:51:00;;;;;;;8.57;5.95;;;;;;;-0.64;65.02;97105.81;5107025;28;20474;-79
2023/12/17 06:53:25;;;;;;;8.65;5.30;;;;;;;-0.54;64.98;97110.94;5108422;28;20589;-79
2023/12/17 06:55:51;;;;;;;8.45;5.60;;;;;;;-0.49;65.03;97112.69;5108392;28;20337;-80
2023/12/17 06:58:16;;;;;;;9.13;5.97;;;;;;;-0.43;65.05;97116.06;5108112;28;20117;-81
2023/12/17 07:00:41;;;;;;;9.80;6.13;;;;;;;-0.25;64.59;97128.50;5108030;27;20497;-79
2023/12/17 07:03:07;;;;;;;8.98;5.15;;;;;;;-0.10;64.27;97124.59;5108043;28;20417;-80
2023/12/17 07:05:32;;;;;;;8.32;6.30;;;;;;;-0.04;63.97;97132.25;5108016;28;20034;-80
2023/12/17 07:07:58;;;;;;;7.95;5.47;;;;;;;0.06;63.93;97138.44;5107907;27;20032;-80
2023/12/17 07:10:23;;;;;;;6.90;5.43;;;;;;;0.18;63.58;97142.16;5107981;28;20102;-80
2023/12/17 07:12:48;;;;;;;10.15;5.93;;;;;;;0.34;63.09;97145.16;5107774;28;20104;-80
2023/12/17 07:15:14;;;;;;;7.95;5.90;;;;;;;0.40;62.79;97135.81;5108259;28;20068;-79
2023/12/17 07:17:39;;;;;;;11.70;6.63;;;;;;;0.48;62.64;97140.41;5108426;27;20427;-80
2023/12/17 07:20:06;;;;;;;10.18;6.40;;;;;;;0.69;62.17;97150.59;5108094;28;20032;-80
2023/12/17 07:22:31;;;;;;;11.30;6.40;;;;;;;0.82;61.87;97144.25;5107799;28;20393;-80
2023/12/17 07:24:56;;;;;;;10.50;6.53;;;;;;;0.92;61.60;97138.50;5107084;28;20039;-80
2023/12/17 07:27:22;;;;;;;11.77;6.70;;;;;;;1.02;60.98;97131.94;5108058;28;20038;-80
2023/12/17 07:29:47;;;;;;;13.27;7.10;;;;;;;1.10;60.98;97136.56;5107511;28;20031;-80
2023/12/17 07:32:13;;;;;;;11.73;7.38;;;;;;;1.15;60.47;97130.13;5107478;28;20094;-81
2023/12/17 07:34:38;;;;;;;10.63;7.00;;;;;;;1.24;60.56;97126.31;5106710;28;20164;-80
2023/12/17 07:37:03;;;;;;;9.57;6.38;;;;;;;1.38;60.42;97126.13;5106503;28;20497;-79
2023/12/17 07:39:29;;;;;;;11.05;6.57;;;;;;;1.52;60.00;97118.56;5107464;28;20084;-80
2023/12/17 07:41:54;;;;;;;10.35;6.63;;;;;;;1.57;60.16;97117.59;5107453;28;20035;-79
2023/12/17 07:44:20;;;;;;;9.43;6.30;;;;;;;1.65;59.81;97130.31;5106815;28;20038;-79
2023/12/17 07:46:45;;;;;;;9.15;6.10;;;;;;;1.65;59.97;97132.22;5107535;28;20123;-79
2023/12/17 07:49:10;;;;;;;10.68;7.43;;;;;;;1.72;59.95;97136.03;5107157;28;20039;-80
2023/12/17 07:51:38;;;;;;;14.57;8.50;;;;;;;1.80;59.84;97140.59;5107062;27;20164;-80
2023/12/17 07:54:04;;;;;;;13.05;7.90;;;;;;;1.83;59.60;97150.78;5107018;28;20512;-79
2023/12/17 07:56:31;;;;;;;13.35;8.30;;;;;;;1.83;59.75;97153.50;5107135;27;20027;-80
2023/12/17 07:58:56;;;;;;;17.38;11.27;;;;;;;1.82;59.65;97154.63;5107301;28;20051;-81
2023/12/17 08:01:32;;;;;;;18.50;11.00;;;;;;;1.90;59.45;97157.66;5106473;28;20031;-80
2023/12/17 08:03:58;;;;;;;19.92;12.80;;;;;;;1.86;59.95;97155.56;5106883;28;20024;-79
2023/12/17 08:06:26;;;;;;;16.52;11.50;;;;;;;1.83;60.28;97160.84;5106821;28;20027;-80
2023/12/17 08:08:55;;;;;;;15.48;10.10;;;;;;;1.88;60.04;97159.88;5106560;28;20047;-80
2023/12/17 08:11:21;;;;;;;14.13;8.90;;;;;;;1.81;60.35;97160.38;5106643;28;20413;-80
2023/12/17 08:13:46;;;;;;;12.52;8.73;;;;;;;1.88;60.70;97173.44;5105152;28;20046;-80
2023/12/17 08:16:12;;;;;;;11.75;7.70;;;;;;;1.85;60.51;97167.56;5106493;28;20042;-79
2023/12/17 08:18:37;;;;;;;12.40;7.75;;;;;;;1.88;60.22;97168.00;5106642;28;20141;-78
2023/12/17 08:21:03;;;;;;;16.60;8.25;;;;;;;1.88;60.34;97174.22;5106842;28;20597;-79
2023/12/17 08:23:29;;;;;;;14.20;8.70;;;;;;;1.80;60.82;97167.72;5106635;28;20030;-79
2023/12/17 08:25:54;;;;;;;10.77;7.18;;;;;;;1.84;61.02;97174.09;5106625;28;20039;-79
2023/12/17 08:28:21;;;;;;;12.93;8.70;;;;;;;1.89;61.18;97175.03;5106703;27;20028;-79
2023/12/17 08:30:46;;;;;;;12.70;7.88;;;;;;;1.93;60.35;97165.91;5106803;28;20036;-80
2023/12/17 08:33:12;;;;;;;11.25;6.95;;;;;;;1.93;60.25;97178.69;5106529;28;20023;-81
2023/12/17 08:35:38;;;;;;;14.18;8.48;;;;;;;1.95;60.32;97165.56;5104954;28;20030;-77
2023/12/17 08:38:05;;;;;;;12.02;7.57;;;;;;;1.95;60.54;97168.28;5106761;28;20361;-77
2023/12/17 08:40:32;;;;;;;12.23;8.00;;;;;;;1.99;60.48;97164.59;5106168;28;20492;-79
2023/12/17 08:42:57;;;;;;;12.40;7.93;;;;;;;2.04;60.50;97158.19;5106731;28;20055;-79
2023/12/17 08:45:23;;;;;;;10.48;7.18;;;;;;;2.12;60.22;97149.19;5106146;28;20474;-79
2023/12/17 08:47:48;;;;;;;11.95;8.18;;;;;;;2.12;60.15;97136.47;5106246;28;20067;-78
2023/12/17 08:50:13;;;;;;;12.57;8.68;;;;;;;2.18;59.76;97137.06;5106363;28;20115;-79
2023/12/17 08:52:39;;;;;;;15.70;8.82;;;;;;;2.08;59.49;97127.38;5106436;28;20083;-83
2023/12/17 08:55:05;;;;;;;14.32;8.15;;;;;;;2.17;59.30;97129.22;5105339;28;20061;-79
2023/12/17 08:57:31;;;;;;;11.65;7.55;;;;;;;2.25;58.82;97128.41;5106016;28;20106;-79
2023/12/17 08:59:56;;;;;;;14.85;8.88;;;;;;;2.25;58.84;97129.19;5106171;28;20371;-80
2023/12/17 09:02:22;;;;;;;9.63;6.93;;;;;;;2.24;58.74;97127.59;5105945;28;20035;-81
2023/12/17 09:04:49;;;;;;;12.57;7.90;;;;;;;2.28;58.65;97130.44;5106043;28;20043;-79
2023/12/17 09:07:15;;;;;;;11.10;7.25;;;;;;;2.28;58.59;97127.72;5105801;28;20050;-83
2023/12/17 09:09:40;;;;;;;9.60;6.38;;;;;;;2.32;57.91;97129.44;5106188;28;20031;-79
2023/12/17 09:12:06;;;;;;;11.50;7.15;;;;;;;2.31;57.65;97133.28;5106431;28;20070;-79
2023/12/17 09:14:31;;;;;;;9.45;7.07;;;;;;;2.36;57.69;97127.69;5105715;28;20067;-80
2023/12/17 09:16:57;;;;;;;12.52;7.68;;;;;;;2.39;57.91;97137.06;5106310;28;20127;-81
2023/12/17 09:19:22;;;;;;;13.45;7.20;;;;;;;2.46;57.79;97144.69;5105833;28;20516;-81
2023/12/17 09:21:48;;;;;;;11.10;7.60;;;;;;;2.45;57.78;97140.38;5106163;28;20051;-80
2023/12/17 09:24:13;;;;;;;13.48;8.65;;;;;;;2.30;58.07;97120.06;5107039;28;20453;-94
2023/12/17 09:26:39;;;;;;;13.63;7.93;;;;;;;2.42;58.03;97130.19;5088165;28;20096;-80
2023/12/17 09:29:04;;;;;;;14.32;8.75;;;;;;;2.48;57.58;97134.31;5106200;28;20027;-80
2023/12/17 09:31:30;;;;;;;12.02;7.13;;;;;;;2.56;57.32;97141.56;5105760;28;20335;-77
2023/12/17 09:33:55;;;;;;;11.15;7.28;;;;;;;2.55;57.45;97138.06;5104768;28;20108;-80
2023/12/17 09:36:22;;;;;;;11.93;7.55;;;;;;;2.50;57.14;97130.13;5106046;28;20560;-80
2023/12/17 09:38:48;;;;;;;11.43;7.50;;;;;;;2.38;57.17;97130.84;5105727;28;20405;-77
2023/12/17 09:41:13;;;;;;;10.98;7.15;;;;;;;2.34;57.45;97143.47;5105747;28;20023;-80
2023/12/17 09:43:39;;;;;;;10.05;6.47;;;;;;;2.19;57.70;97127.78;5105680;28;20031;-80
2023/12/17 09:46:04;;;;;;;12.48;7.38;;;;;;;2.17;58.15;97129.22;5105832;28;20401;-81
2023/12/17 09:48:30;;;;;;;11.50;7.72;;;;;;;2.15;58.24;97129.56;5105288;28;20042;-79
2023/12/17 09:50:55;;;;;;;12.20;7.15;;;;;;;2.19;58.62;97127.00;5105968;28;20421;-79
2023/12/17 09:53:22;;;;;;;14.40;8.00;;;;;;;2.26;59.52;97119.13;5105357;28;20210;-78
2023/12/17 09:55:47;;;;;;;13.45;8.82;;;;;;;2.35;58.84;97112.53;5106128;28;20098;-80
2023/12/17 09:58:12;;;;;;;13.13;9.00;;;;;;;2.36;59.33;97118.75;5107552;28;20418;-78
2023/12/17 10:00:38;;;;;;;12.15;7.82;;;;;;;2.32;59.17;97115.88;5107872;28;20043;-78
2023/12/17 10:03:04;;;;;;;10.38;6.95;;;;;;;2.31;58.60;97105.34;5109699;28;20244;-80
2023/12/17 10:05:30;;;;;;;10.80;7.10;;;;;;;2.40;58.27;97097.94;5108954;28;20462;-80
2023/12/17 10:07:55;;;;;;;12.32;7.82;;;;;;;2.42;58.21;97100.34;5109498;28;20015;-82
2023/12/17 10:10:21;;;;;;;15.98;8.32;;;;;;;2.42;57.92;97094.91;5108658;28;20026;-81
2023/12/17 10:12:47;;;;;;;12.25;7.75;;;;;;;2.46;57.30;97093.88;5107876;28;20038;-81
2023/12/17 10:15:12;;;;;;;11.55;7.35;;;;;;;2.47;57.03;97100.13;5109434;28;20372;-81
2023/12/17 10:17:38;;;;;;;12.95;8.25;;;;;;;2.49;57.23;97090.53;5109005;28;20417;-81
2023/12/17 10:20:06;;;;;;;18.55;9.80;;;;;;;2.52;57.41;97089.06;5107665;28;20454;-81
2023/12/17 10:22:31;;;;;;;17.40;9.55;;;;;;;2.67;56.49;97094.66;5108501;28;20057;-81
2023/12/17 10:24:57;;;;;;;14.13;8.95;;;;;;;2.75;55.80;97086.78;5109019;28;20035;-81
2023/12/17 10:27:22;;;;;;;13.82;9.02;;;;;;;2.76;55.95;97085.66;5108608;28;20042;-81
2023/12/17 10:29:53;;;;;;;13.43;7.80;;;;;;;2.80;55.99;97072.97;5109109;28;20032;-82
2023/12/17 10:32:22;;;;;;;14.77;9.00;;;;;;;2.86;55.83;97077.06;5108547;28;20023;-81
2023/12/17 10:34:50;;;;;;;16.17;9.57;;;;;;;3.08;55.50;97073.19;5108941;28;20119;-80
2023/12/17 10:37:22;;;;;;;14.35;8.73;;;;;;;3.01;55.80;97075.66;5108674;28;20466;-80
2023/12/17 10:39:50;;;;;;;12.55;7.95;;;;;;;3.10;55.57;97079.88;5108656;28;20057;-84
2023/12/17 10:42:19;;;;;;;12.32;8.57;;;;;;;3.12;55.77;97074.91;5108803;28;20035;-81
2023/12/17 10:44:49;;;;;;;11.85;7.90;;;;;;;3.24;54.46;97076.06;5108627;28;20114;-81
2023/12/17 10:47:19;;;;;;;12.38;7.72;;;;;;;3.24;54.04;97070.63;5108646;28;20055;-79
2023/12/17 10:49:46;;;;;;;13.77;8.43;;;;;;;3.17;54.22;97076.63;5106898;28;20027;-81
2023/12/17 10:52:12;;;;;;;13.23;7.90;;;;;;;3.17;54.40;97084.75;5108518;28;20114;-81
2023/12/17 10:54:38;;;;;;;12.77;8.20;;;;;;;3.11;54.63;97067.88;5108434;28;20031;-82
2023/12/17 10:57:08;;;;;;;14.75;9.05;;;;;;;3.10;55.19;97070.94;5108116;28;20347;-80
2023/12/17 10:59:36;;;;;;;13.50;8.20;;;;;;;3.06;55.08;97072.72;5107109;28;20409;-82
2023/12/17 11:02:01;;;;;;;15.35;10.10;;;;;;;3.08;54.96;97065.81;5106893;28;20106;-80
2023/12/17 11:04:27;;;;;;;13.35;9.20;;;;;;;3.07;54.91;97053.38;5107369;28;20094;-81
2023/12/17 11:06:53;;;;;;;13.57;8.88;;;;;;;3.15;55.21;97051.69;5106711;28;20027;-81
2023/12/17 11:09:19;;;;;;;13.90;9.10;;;;;;;3.06;55.11;97048.28;5106248;28;20081;-81
2023/12/17 11:11:47;;;;;;;13.90;9.20;;;;;;;3.14;54.64;97050.09;5108110;28;20027;-81
2023/12/17 11:14:13;;;;;;;12.45;7.00;;;;;;;3.16;54.50;97042.41;5107853;28;20131;-80
2023/12/17 11:16:39;;;;;;;12.98;8.68;;;;;;;3.05;55.01;97044.78;5108053;28;20099;-81
2023/12/17 11:19:05;;;;;;;12.32;7.38;;;;;;;3.05;54.76;97044.78;5106335;28;20108;-81
2023/12/17 11:21:32;;;;;;;14.75;9.02;;;;;;;3.08;55.09;97048.72;5106712;28;20024;-81
2023/12/17 11:23:58;;;;;;;11.60;8.05;;;;;;;3.03;55.10;97043.50;5106622;28;20039;-81
2023/12/17 11:26:23;;;;;;;14.38;9.77;;;;;;;3.03;55.43;97030.72;5107942;28;20224;-82